Time;durP1;ratioP1;P1;durP2;ratioP2;P2;SDS_P1;SDS_P2;PMS_P1;PMS_P2;Temp;Humidity;BMP_temperature;BMP_pressure;BME280_temperature;BME280_humidity;BME280_pressure;Samples;Min_cycle;Max_cycle;Signal;HPM_P1;HPM_P2
2022/10/17 00:02:56;;;;;;;30.33;19.70;;;;;;;-147.20;100.00;63046.97;31306901;28;20061;-67
2022/10/17 00:17:57;;;;;;;27.55;18.35;;;;;;;-147.20;100.00;63046.97;31306591;28;20025;-67
2022/10/17 00:32:57;;;;;;;30.85;21.10;;;;;;;-147.20;100.00;63046.97;31305360;28;20034;-67
2022/10/17 00:48:02;;;;;;;31.35;20.67;;;;;;;-147.20;100.00;63046.97;31303679;28;20293;-67
2022/10/17 01:03:03;;;;;;;28.48;18.55;;;;;;;-147.20;100.00;63046.97;31303024;28;20133;-68
2022/10/17 01:18:32;;;;;;;32.92;20.05;;;;;;;-147.20;100.00;63046.97;31301622;28;20364;-68
2022/10/17 01:34:11;;;;;;;28.08;19.35;;;;;;;-147.20;100.00;63046.97;31321941;28;20053;-67
2022/10/17 01:49:16;;;;;;;30.50;19.92;;;;;;;-147.20;100.00;63046.97;31321123;28;20105;-67
2022/10/17 02:04:17;;;;;;;33.20;20.38;;;;;;;-147.20;100.00;63046.97;31315258;28;20054;-67
2022/10/17 02:19:39;;;;;;;33.25;20.55;;;;;;;-147.20;100.00;63046.97;31317439;28;20109;-67
2022/10/17 02:34:47;;;;;;;33.33;21.13;;;;;;;-147.20;100.00;63046.97;31314553;28;20033;-67
2022/10/17 02:49:53;;;;;;;29.20;20.10;;;;;;;-147.20;100.00;63046.97;31314090;28;20060;-67
2022/10/17 03:04:55;;;;;;;32.92;20.13;;;;;;;-147.20;100.00;63046.97;31311905;28;20073;-67
2022/10/17 03:19:55;;;;;;;29.85;19.83;;;;;;;-147.20;100.00;63046.97;31308887;28;20026;-67
2022/10/17 03:34:55;;;;;;;29.60;20.35;;;;;;;-147.20;100.00;63046.97;31334145;28;20064;-67
2022/10/17 03:57:43;;;;;;;34.70;22.30;;;;;;;11.03;81.64;101068.75;30975053;28;96869;-66
2022/10/17 04:12:43;;;;;;;36.58;22.90;;;;;;;10.90;81.42;101079.78;30954458;28;97031;-65
2022/10/17 04:27:44;;;;;;;35.20;21.92;;;;;;;10.82;81.84;101082.34;30933279;28;97186;-65
2022/10/17 04:42:44;;;;;;;42.97;23.48;;;;;;;10.73;82.10;101072.59;30825096;28;97000;-63
2022/10/17 04:57:44;;;;;;;43.95;23.48;;;;;;;10.69;81.95;101077.41;30805785;28;114056;-64
2022/10/17 05:12:46;;;;;;;40.33;22.33;;;;;;;10.57;82.35;101083.91;30740881;28;102183;-64
2022/10/17 05:27:46;;;;;;;32.97;21.50;;;;;;;10.57;82.30;101102.56;30741443;28;96579;-65
2022/10/17 05:42:47;;;;;;;50.33;26.73;;;;;;;10.72;82.15;101119.72;30741003;28;105078;-66
2022/10/17 05:57:49;;;;;;;41.30;23.37;;;;;;;11.27;83.05;101152.66;30738950;28;97879;-67
2022/10/17 06:12:49;;;;;;;34.33;21.50;;;;;;;12.19;82.47;101155.94;30736637;28;96574;-66
2022/10/17 06:27:50;;;;;;;38.05;19.35;;;;;;;13.05;82.14;101162.19;30736061;28;97233;-66
2022/10/17 06:42:50;;;;;;;31.27;18.50;;;;;;;14.01;80.73;101178.72;30734966;28;96578;-66
2022/10/17 06:57:53;;;;;;;24.83;17.45;;;;;;;14.91;79.41;101174.16;30732907;28;96829;-67
2022/10/17 07:12:54;;;;;;;28.93;17.97;;;;;;;15.66;77.26;101197.69;30731654;28;96696;-65
2022/10/17 07:27:54;;;;;;;24.33;15.57;;;;;;;16.96;75.52;101211.13;30729535;28;117687;-64
2022/10/17 07:42:55;;;;;;;21.48;13.88;;;;;;;18.05;73.01;101207.53;30725781;28;96727;-64
2022/10/17 07:57:56;;;;;;;23.55;15.60;;;;;;;19.49;69.54;101210.59;30727232;28;97520;-67
2022/10/17 08:12:57;;;;;;;20.63;13.77;;;;;;;20.75;65.69;101208.91;30727302;28;97352;-63
2022/10/17 08:27:58;;;;;;;16.70;12.60;;;;;;;23.60;61.28;101215.84;30724091;28;96973;-66
2022/10/17 08:43:34;;;;;;;19.33;11.13;;;;;;;33.24;41.20;101210.75;30743261;28;96669;-66
2022/10/17 08:58:35;;;;;;;14.80;10.40;;;;;;;38.40;28.60;101201.25;30744650;28;96660;-63
2022/10/17 09:13:52;;;;;;;14.00;10.40;;;;;;;38.80;23.20;101197.28;30743348;28;97105;-63
2022/10/17 09:28:58;;;;;;;17.43;10.20;;;;;;;42.14;19.59;101197.09;30742910;28;96752;-67
2022/10/17 09:44:27;;;;;;;17.13;10.47;;;;;;;41.89;18.22;101194.50;30740655;28;96724;-65
2022/10/17 09:59:33;;;;;;;12.93;9.10;;;;;;;43.42;16.37;101187.09;30736825;28;96835;-66
2022/10/17 10:14:38;;;;;;;15.50;8.77;;;;;;;41.74;16.42;101188.50;30738231;28;96712;-66
2022/10/17 10:29:49;;;;;;;12.90;8.97;;;;;;;42.61;16.26;101190.63;30734800;28;96739;-69
2022/10/17 10:44:52;;;;;;;9.10;7.37;;;;;;;42.89;15.76;101178.44;30733749;28;96965;-66
2022/10/17 10:59:59;;;;;;;8.23;7.00;;;;;;;43.91;14.69;101159.56;30732631;28;97703;-64
2022/10/17 11:15:41;;;;;;;10.40;7.87;;;;;;;42.33;15.58;101152.38;30730795;28;98330;-66
2022/10/17 11:30:54;;;;;;;9.57;8.07;;;;;;;44.76;14.44;101133.09;30730223;28;96671;-65
2022/10/17 11:46:00;;;;;;;8.27;6.53;;;;;;;43.46;14.85;101142.31;30727670;28;96746;-67
2022/10/17 12:01:15;;;;;;;9.50;7.10;;;;;;;44.25;14.15;101114.72;30726601;28;97499;-66
2022/10/17 12:16:18;;;;;;;7.63;6.70;;;;;;;44.32;14.03;101092.41;30741634;28;96967;-67
2022/10/17 12:31:20;;;;;;;9.80;6.80;;;;;;;42.89;14.31;101088.78;30742314;28;97047;-67
2022/10/17 12:46:55;;;;;;;12.57;7.13;;;;;;;43.65;14.64;101088.16;30738784;28;97461;-67
2022/10/17 13:02:00;;;;;;;12.60;8.30;;;;;;;44.52;14.08;101078.19;30736739;28;96704;-68
2022/10/17 13:17:04;;;;;;;8.37;7.40;;;;;;;43.24;15.34;101085.06;30617002;28;97760;-69
2022/10/17 13:32:05;;;;;;;8.97;6.97;;;;;;;43.58;14.69;101079.63;30611150;28;97342;-68
2022/10/17 13:47:05;;;;;;;8.13;7.28;;;;;;;43.31;15.27;101039.47;30679265;28;97033;-66
2022/10/17 14:02:14;;;;;;;10.15;6.63;;;;;;;42.83;14.90;101051.00;30785343;28;107342;-66
2022/10/17 14:17:26;;;;;;;10.40;6.00;;;;;;;41.10;15.88;101051.41;30782852;28;97762;-65
2022/10/17 14:32:29;;;;;;;10.30;7.70;;;;;;;40.86;16.64;101038.38;30762018;28;97711;-65
2022/10/17 14:47:30;;;;;;;7.13;5.53;;;;;;;38.72;18.26;101043.03;30823146;28;97418;-64
2022/10/17 15:02:30;;;;;;;8.45;6.22;;;;;;;36.06;20.48;101048.06;30755778;28;98144;-63
2022/10/17 15:17:33;;;;;;;10.48;7.90;;;;;;;33.06;23.45;101042.06;30783089;28;116598;-65
2022/10/17 15:32:33;;;;;;;17.10;12.37;;;;;;;29.40;27.75;101035.28;30815190;28;97127;-65
2022/10/17 15:47:34;;;;;;;14.55;9.90;;;;;;;25.31;33.38;101026.91;30778236;28;117905;-65
2022/10/17 16:02:34;;;;;;;9.65;5.20;;;;;;;22.83;37.64;101034.44;30724484;28;97575;-65
2022/10/17 16:17:34;;;;;;;8.70;4.97;;;;;;;21.54;40.26;101033.44;30649585;28;97080;-65
2022/10/17 16:32:35;;;;;;;9.87;5.10;;;;;;;20.59;42.45;101035.06;30668160;28;97222;-66
2022/10/17 16:47:35;;;;;;;13.73;6.35;;;;;;;19.89;44.62;101040.34;30711582;28;96918;-65
2022/10/17 17:02:35;;;;;;;9.30;5.93;;;;;;;19.51;45.57;101039.09;30726990;28;115100;-65
2022/10/17 17:17:36;;;;;;;9.50;5.32;;;;;;;19.15;47.06;101036.81;30733137;28;115038;-64
2022/10/17 17:32:36;;;;;;;11.23;6.72;;;;;;;19.03;47.99;101042.81;30731642;28;97221;-66
2022/10/17 17:47:36;;;;;;;7.60;4.95;;;;;;;19.11;48.08;101036.41;30730285;28;116644;-68
2022/10/17 18:02:37;;;;;;;9.68;5.50;;;;;;;18.99;48.60;101038.06;30727106;28;96945;-66
2022/10/17 18:17:37;;;;;;;8.73;5.88;;;;;;;18.75;49.05;101046.47;30727879;28;96811;-66
2022/10/17 18:32:37;;;;;;;7.35;4.80;;;;;;;18.69;49.54;101055.38;30727985;28;97085;-66
2022/10/17 18:47:38;;;;;;;9.45;5.70;;;;;;;18.59;49.89;101044.97;30726900;28;96778;-66
2022/10/17 19:02:38;;;;;;;9.70;5.82;;;;;;;18.34;50.47;101047.34;30724797;28;112978;-67
2022/10/17 19:17:38;;;;;;;10.90;5.10;;;;;;;18.15;51.09;101059.72;30723473;28;107484;-66
2022/10/17 19:32:39;;;;;;;12.20;6.18;;;;;;;17.92;51.40;101054.63;30722700;28;99692;-66
2022/10/17 19:47:39;;;;;;;13.48;6.68;;;;;;;17.73;52.13;101064.19;30719948;28;97642;-66
2022/10/17 20:02:39;;;;;;;8.60;5.32;;;;;;;17.45;52.27;101073.09;30720209;28;97055;-68
2022/10/17 20:17:40;;;;;;;12.38;6.00;;;;;;;17.24;52.61;101079.34;30715797;28;96930;-68
2022/10/17 20:32:40;;;;;;;11.30;6.15;;;;;;;16.88;53.14;101078.31;30725262;28;119003;-67
2022/10/17 20:47:40;;;;;;;13.57;6.57;;;;;;;16.42;53.99;101106.31;30745963;28;96855;-68
2022/10/17 21:02:41;;;;;;;7.50;5.53;;;;;;;16.05;54.60;101101.88;30748105;28;97185;-68
2022/10/17 21:17:41;;;;;;;20.15;7.88;;;;;;;15.97;55.21;101093.88;30746280;28;107881;-68
2022/10/17 21:32:41;;;;;;;11.00;5.75;;;;;;;15.67;56.30;101096.50;30745366;28;96604;-69
2022/10/17 21:47:42;;;;;;;10.73;5.82;;;;;;;15.23;56.83;101104.22;30743882;28;97855;-69
2022/10/17 22:02:42;;;;;;;9.77;5.60;;;;;;;14.96;58.30;101088.63;30743410;28;96986;-68
2022/10/17 22:17:42;;;;;;;13.68;6.63;;;;;;;14.75;58.37;101083.88;30741707;28;112787;-68
2022/10/17 22:32:43;;;;;;;15.20;10.48;;;;;;;14.53;59.22;101072.91;30740459;28;96852;-69
2022/10/17 22:47:43;;;;;;;13.15;7.80;;;;;;;14.14;59.92;101066.50;30738772;28;96852;-68
2022/10/17 23:02:43;;;;;;;8.95;6.35;;;;;;;13.95;60.98;101077.63;30737117;28;96661;-69
2022/10/17 23:17:44;;;;;;;10.13;6.82;;;;;;;13.88;61.02;101072.09;30736032;28;105368;-69
2022/10/17 23:32:44;;;;;;;9.25;6.38;;;;;;;13.61;61.89;101049.22;30734276;28;114696;-69
2022/10/17 23:47:44;;;;;;;9.25;5.95;;;;;;;13.62;62.17;101057.06;30733492;28;105620;-68
